Time;durP1;ratioP1;P1;durP2;ratioP2;P2;SDS_P1;SDS_P2;PMS_P1;PMS_P2;Temp;Humidity;BMP_temperature;BMP_pressure;BME280_temperature;BME280_humidity;BME280_pressure;Samples;Min_cycle;Max_cycle;Signal;HPM_P1;HPM_P2
2021/06/07 00:00:58;;;;;;;30.77;23.00;;;16.60;99.90;;;;;;5091035;28;20442;-66
2021/06/07 00:03:25;;;;;;;29.00;24.50;;;16.60;99.90;;;;;;5091885;28;20553;-65
2021/06/07 00:05:51;;;;;;;30.43;23.50;;;16.60;99.90;;;;;;5091447;28;20448;-66
2021/06/07 00:08:21;;;;;;;27.87;24.00;;;16.60;99.90;;;;;;5092470;28;20537;-66
2021/06/07 00:10:47;;;;;;;32.67;25.87;;;16.60;99.90;;;;;;5091762;28;20847;-67
2021/06/07 00:13:14;;;;;;;30.10;25.63;;;16.60;99.90;;;;;;5091756;28;20497;-67
2021/06/07 00:15:40;;;;;;;31.47;24.17;;;16.60;99.90;;;;;;5091787;28;20450;-66
2021/06/07 00:18:07;;;;;;;29.93;23.97;;;16.60;99.90;;;;;;5091601;28;21068;-66
2021/06/07 00:20:36;;;;;;;30.27;25.70;;;16.60;99.90;;;;;;5091216;28;20442;-65
2021/06/07 00:23:04;;;;;;;28.53;24.53;;;16.60;99.90;;;;;;5092558;28;20438;-66
2021/06/07 00:25:32;;;;;;;38.00;25.80;;;16.60;99.90;;;;;;5093012;28;20519;-68
2021/06/07 00:27:59;;;;;;;28.47;24.97;;;16.60;99.90;;;;;;5091737;28;20434;-66
2021/06/07 00:30:25;;;;;;;31.17;27.20;;;16.60;99.90;;;;;;5091168;28;20991;-66
2021/06/07 00:32:52;;;;;;;30.03;24.93;;;16.60;99.90;;;;;;5091446;28;20447;-66
2021/06/07 00:35:22;;;;;;;26.93;23.20;;;16.60;99.90;;;;;;5091335;28;20452;-65
2021/06/07 00:37:49;;;;;;;34.73;26.83;;;16.60;99.90;;;;;;5091172;28;20557;-67
2021/06/07 00:40:17;;;;;;;34.10;25.17;;;16.60;99.90;;;;;;5090939;28;20440;-66
2021/06/07 00:42:45;;;;;;;36.83;26.83;;;16.60;99.90;;;;;;5091590;28;20529;-66
2021/06/07 00:45:17;;;;;;;32.20;24.33;;;16.50;99.90;;;;;;5091290;28;20458;-66
2021/06/07 00:47:44;;;;;;;32.40;25.23;;;16.50;99.90;;;;;;5091415;28;20453;-66
2021/06/07 00:50:12;;;;;;;35.53;26.33;;;16.50;99.90;;;;;;5090773;28;20457;-65
2021/06/07 00:52:59;;;;;;;32.50;26.37;;;16.50;99.90;;;;;;5091589;28;20446;-65
2021/06/07 00:55:26;;;;;;;30.50;24.33;;;16.50;99.90;;;;;;5091120;28;20928;-66
2021/06/07 00:57:53;;;;;;;33.87;25.70;;;16.50;99.90;;;;;;5091035;28;20478;-66
2021/06/07 01:00:20;;;;;;;31.63;25.93;;;16.50;99.90;;;;;;5090707;28;20460;-67
2021/06/07 01:02:47;;;;;;;33.60;24.60;;;16.50;99.90;;;;;;5090828;28;20438;-65
2021/06/07 01:05:13;;;;;;;32.70;24.90;;;16.50;99.90;;;;;;5090557;28;21022;-67
2021/06/07 01:07:40;;;;;;;30.87;25.70;;;16.50;99.90;;;;;;5090588;28;20445;-66
2021/06/07 01:10:08;;;;;;;39.27;25.67;;;16.40;99.90;;;;;;5090424;28;20448;-66
2021/06/07 01:12:35;;;;;;;32.17;26.00;;;16.40;99.90;;;;;;5090740;28;20446;-66
2021/06/07 01:15:04;;;;;;;34.67;26.00;;;16.40;99.90;;;;;;5090844;28;20468;-65
2021/06/07 01:17:30;;;;;;;32.87;26.40;;;16.40;99.90;;;;;;5090361;28;20577;-66
2021/06/07 01:19:57;;;;;;;33.13;25.30;;;16.40;99.90;;;;;;5090345;28;20452;-66
2021/06/07 01:22:25;;;;;;;35.57;26.83;;;16.40;99.90;;;;;;5090640;28;20442;-65
2021/06/07 01:24:51;;;;;;;32.10;27.07;;;16.40;99.90;;;;;;5090538;28;20519;-67
2021/06/07 01:27:18;;;;;;;35.60;27.30;;;16.40;99.90;;;;;;5090375;28;20446;-66
2021/06/07 01:29:44;;;;;;;34.60;27.17;;;16.40;99.90;;;;;;5090037;28;21193;-65
2021/06/07 01:32:11;;;;;;;36.37;27.73;;;16.40;99.90;;;;;;5090183;28;20966;-67
2021/06/07 01:34:37;;;;;;;34.30;26.80;;;16.40;99.90;;;;;;5090296;28;20487;-66
2021/06/07 01:37:04;;;;;;;32.13;26.00;;;16.40;99.90;;;;;;5090347;28;20485;-66
2021/06/07 01:39:32;;;;;;;35.33;26.27;;;16.40;99.90;;;;;;5089964;28;20448;-67
2021/06/07 01:41:58;;;;;;;35.50;27.30;;;16.30;99.90;;;;;;5090326;28;20457;-67
2021/06/07 01:44:25;;;;;;;46.87;28.90;;;16.30;99.90;;;;;;5090608;28;20465;-66
2021/06/07 01:46:51;;;;;;;39.23;27.33;;;16.30;99.90;;;;;;5091130;28;20438;-65
2021/06/07 01:49:17;;;;;;;40.10;26.70;;;16.30;99.90;;;;;;5090670;28;20452;-66
2021/06/07 01:51:44;;;;;;;46.50;29.43;;;16.30;99.90;;;;;;5090977;28;20444;-66
2021/06/07 01:54:11;;;;;;;37.03;28.20;;;16.30;99.90;;;;;;5090264;28;20474;-66
2021/06/07 01:56:39;;;;;;;39.23;27.80;;;16.30;99.90;;;;;;5089987;28;20835;-66
2021/06/07 01:59:05;;;;;;;39.50;28.07;;;16.30;99.90;;;;;;5089592;28;20971;-65
2021/06/07 02:01:32;;;;;;;44.87;29.67;;;16.20;99.90;;;;;;5090413;28;20438;-65
2021/06/07 02:03:58;;;;;;;46.50;30.27;;;16.30;99.90;;;;;;5090133;28;20466;-67
2021/06/07 02:06:26;;;;;;;38.80;28.37;;;16.20;99.90;;;;;;5090144;28;20482;-67
2021/06/07 02:08:53;;;;;;;47.67;30.50;;;16.20;99.90;;;;;;5089793;28;20579;-64
2021/06/07 02:11:24;;;;;;;36.27;26.27;;;16.20;99.90;;;;;;5089984;28;20549;-64
2021/06/07 02:13:54;;;;;;;47.83;29.20;;;16.20;99.90;;;;;;5089872;28;20474;-66
2021/06/07 02:16:22;;;;;;;38.33;27.73;;;16.10;99.90;;;;;;5090256;28;20445;-64
2021/06/07 02:18:49;;;;;;;39.87;28.93;;;16.20;99.90;;;;;;5092603;28;20478;-63
2021/06/07 02:21:17;;;;;;;40.60;29.00;;;16.20;99.90;;;;;;5093599;28;20855;-65
2021/06/07 02:23:44;;;;;;;40.10;28.80;;;16.20;99.90;;;;;;5093799;28;20466;-66
2021/06/07 02:26:10;;;;;;;48.40;29.40;;;16.20;99.90;;;;;;5093596;28;20478;-66
2021/06/07 02:28:37;;;;;;;45.43;30.70;;;16.20;99.90;;;;;;5093916;28;20446;-65
2021/06/07 02:31:05;;;;;;;44.10;28.90;;;16.20;99.90;;;;;;5093621;28;20494;-66
2021/06/07 02:33:32;;;;;;;41.60;27.30;;;16.20;99.90;;;;;;5093567;28;20474;-66
2021/06/07 02:35:58;;;;;;;39.03;27.10;;;16.20;99.90;;;;;;5093571;28;20485;-65
2021/06/07 02:38:24;;;;;;;41.90;28.33;;;16.20;99.90;;;;;;5093638;28;20937;-64
2021/06/07 02:40:51;;;;;;;38.43;27.60;;;16.20;99.90;;;;;;5093308;28;20891;-64
2021/06/07 02:43:18;;;;;;;35.40;26.97;;;16.20;99.90;;;;;;5093761;28;20549;-65
2021/06/07 02:45:45;;;;;;;37.13;28.53;;;16.20;99.90;;;;;;5093550;28;20819;-64
2021/06/07 02:48:13;;;;;;;41.90;27.17;;;16.30;99.90;;;;;;5093521;28;20440;-64
2021/06/07 02:50:41;;;;;;;38.20;26.53;;;16.30;99.90;;;;;;5093408;28;20456;-65
2021/06/07 02:53:08;;;;;;;39.43;27.33;;;16.30;99.90;;;;;;5093557;28;20473;-65
2021/06/07 02:55:37;;;;;;;42.13;27.20;;;16.30;99.90;;;;;;5093659;28;20446;-68
2021/06/07 02:58:05;;;;;;;39.27;26.70;;;16.30;99.90;;;;;;5093417;28;20482;-66
2021/06/07 03:00:34;;;;;;;38.63;29.20;;;16.30;99.90;;;;;;5092876;28;20438;-65
2021/06/07 03:03:01;;;;;;;41.10;27.20;;;16.30;99.90;;;;;;5093222;28;20448;-65
2021/06/07 03:05:30;;;;;;;43.30;29.40;;;16.30;99.90;;;;;;5092949;28;20486;-68
2021/06/07 03:07:57;;;;;;;38.30;26.70;;;16.20;99.90;;;;;;5093283;28;20517;-67
2021/06/07 03:10:24;;;;;;;38.70;27.40;;;16.30;99.90;;;;;;5092937;28;20445;-66
2021/06/07 03:12:52;;;;;;;41.13;27.57;;;16.20;99.90;;;;;;5092964;28;20529;-67
2021/06/07 03:15:19;;;;;;;44.93;30.30;;;16.30;99.90;;;;;;5092733;28;20446;-66
2021/06/07 03:17:46;;;;;;;39.93;27.60;;;16.30;99.90;;;;;;5092650;28;20932;-66
2021/06/07 03:20:15;;;;;;;44.00;28.67;;;16.30;99.90;;;;;;5092241;28;20446;-65
2021/06/07 03:22:43;;;;;;;40.60;28.60;;;16.20;99.90;;;;;;5092646;28;20448;-67
2021/06/07 03:25:10;;;;;;;48.67;31.93;;;16.20;99.90;;;;;;5092574;28;20470;-67
2021/06/07 03:27:39;;;;;;;43.77;29.33;;;16.20;99.90;;;;;;5092664;28;20537;-66
2021/06/07 03:30:07;;;;;;;43.13;30.03;;;16.20;99.90;;;;;;5091182;28;20452;-66
2021/06/07 03:32:33;;;;;;;43.03;29.43;;;16.20;99.90;;;;;;5092601;28;20442;-66
2021/06/07 03:35:00;;;;;;;38.17;27.30;;;16.20;99.90;;;;;;5092490;28;20516;-65
2021/06/07 03:37:27;;;;;;;37.73;26.10;;;16.20;99.90;;;;;;5092738;28;20486;-65
2021/06/07 03:39:55;;;;;;;42.03;30.37;;;16.20;99.90;;;;;;5092335;28;20549;-65
2021/06/07 03:42:21;;;;;;;39.63;28.57;;;16.20;99.90;;;;;;5092413;28;20587;-66
2021/06/07 03:44:47;;;;;;;40.93;27.70;;;16.20;99.90;;;;;;5092181;28;21000;-66
2021/06/07 03:47:14;;;;;;;38.03;28.63;;;16.30;99.90;;;;;;5092242;28;20438;-68
2021/06/07 03:49:40;;;;;;;40.13;28.20;;;16.20;99.90;;;;;;5093077;28;20457;-67
2021/06/07 03:52:07;;;;;;;40.80;28.17;;;16.20;99.90;;;;;;5092889;28;20450;-66
2021/06/07 03:54:33;;;;;;;40.40;28.90;;;16.20;99.90;;;;;;5092226;28;20504;-66
2021/06/07 03:57:01;;;;;;;41.00;29.37;;;16.30;99.90;;;;;;5092053;28;21136;-65
2021/06/07 03:59:27;;;;;;;40.50;27.40;;;16.30;99.90;;;;;;5091928;28;20442;-65
2021/06/07 04:01:55;;;;;;;38.50;26.93;;;16.30;99.90;;;;;;5091362;28;20438;-66
2021/06/07 04:04:21;;;;;;;45.90;30.10;;;16.30;99.90;;;;;;5092112;28;20462;-65
2021/06/07 04:06:48;;;;;;;42.03;28.57;;;16.30;99.90;;;;;;5091835;28;20529;-66
2021/06/07 04:09:14;;;;;;;43.67;30.23;;;16.30;99.90;;;;;;5091423;28;20476;-67
2021/06/07 04:11:41;;;;;;;46.40;26.93;;;16.40;99.90;;;;;;5091713;28;20519;-66
2021/06/07 04:14:08;;;;;;;41.07;28.03;;;16.30;99.90;;;;;;5091447;28;20492;-66
2021/06/07 04:16:34;;;;;;;38.10;27.97;;;16.30;99.90;;;;;;5091429;28;20452;-67
2021/06/07 04:19:01;;;;;;;43.33;30.30;;;16.30;99.90;;;;;;5091229;28;20469;-66
2021/06/07 04:21:27;;;;;;;41.20;28.77;;;16.30;99.90;;;;;;5091634;28;20468;-66
2021/06/07 04:23:53;;;;;;;42.80;27.77;;;16.30;99.90;;;;;;5091210;28;20481;-66
2021/06/07 04:26:20;;;;;;;44.27;30.17;;;16.30;99.90;;;;;;5091498;28;20446;-66
2021/06/07 04:28:46;;;;;;;42.87;29.30;;;16.30;99.90;;;;;;5091183;28;20446;-64
2021/06/07 04:31:14;;;;;;;48.30;30.37;;;16.30;99.90;;;;;;5091015;28;20442;-65
2021/06/07 04:33:40;;;;;;;40.17;29.27;;;16.30;99.90;;;;;;5091038;28;20462;-66
2021/06/07 04:36:06;;;;;;;47.27;31.17;;;16.30;99.90;;;;;;5091105;28;20460;-65
2021/06/07 04:38:33;;;;;;;44.67;27.40;;;16.30;99.90;;;;;;5090945;28;20855;-67
2021/06/07 04:40:59;;;;;;;42.40;26.80;;;16.30;99.90;;;;;;5090530;28;20450;-67
2021/06/07 04:43:26;;;;;;;38.13;26.80;;;16.40;99.90;;;;;;5090772;28;20946;-66
2021/06/07 04:45:52;;;;;;;42.00;29.63;;;16.40;99.90;;;;;;5090902;28;20452;-66
2021/06/07 04:48:20;;;;;;;41.80;27.87;;;16.50;99.90;;;;;;5090469;28;20962;-66
2021/06/07 04:50:46;;;;;;;39.73;28.50;;;16.50;99.90;;;;;;5090862;28;20518;-66
2021/06/07 04:53:13;;;;;;;41.57;27.70;;;16.40;99.90;;;;;;5090695;28;20553;-65
2021/06/07 04:55:41;;;;;;;37.27;26.07;;;16.50;99.90;;;;;;5090802;28;20457;-65
2021/06/07 04:58:10;;;;;;;40.47;26.37;;;16.50;99.90;;;;;;5090551;28;20485;-68
2021/06/07 05:00:38;;;;;;;33.07;25.40;;;16.50;99.90;;;;;;5090461;28;20525;-66
2021/06/07 05:03:04;;;;;;;41.70;28.70;;;16.50;99.90;;;;;;5090714;28;20445;-68
2021/06/07 05:05:32;;;;;;;43.37;26.97;;;16.50;99.90;;;;;;5090882;28;20456;-66
2021/06/07 05:07:59;;;;;;;39.73;25.73;;;16.40;99.90;;;;;;5086935;28;20526;-66
2021/06/07 05:10:25;;;;;;;43.20;26.37;;;16.40;99.90;;;;;;5087860;28;20449;-66
2021/06/07 05:12:52;;;;;;;40.33;28.10;;;16.40;99.90;;;;;;5087768;28;20560;-63
2021/06/07 05:15:19;;;;;;;45.33;28.40;;;16.50;99.90;;;;;;5097345;28;20595;-65
2021/06/07 05:17:46;;;;;;;39.60;26.23;;;16.50;99.90;;;;;;5097347;28;20483;-65
2021/06/07 05:20:15;;;;;;;38.17;26.90;;;16.50;99.90;;;;;;5107105;28;20818;-66
2021/06/07 05:22:43;;;;;;;40.23;28.60;;;16.50;99.90;;;;;;5097805;28;20450;-69
2021/06/07 05:25:10;;;;;;;36.03;25.87;;;16.60;99.90;;;;;;5087435;28;20470;-68
2021/06/07 05:27:37;;;;;;;38.47;27.03;;;16.60;99.90;;;;;;5088046;28;20525;-67
2021/06/07 05:30:04;;;;;;;36.23;25.60;;;16.60;99.90;;;;;;5087271;28;20525;-67
2021/06/07 05:32:31;;;;;;;41.03;26.00;;;16.60;99.90;;;;;;5087926;28;20446;-67
2021/06/07 05:34:57;;;;;;;40.43;25.70;;;16.70;99.90;;;;;;5088123;28;20530;-67
2021/06/07 05:37:24;;;;;;;39.03;25.87;;;16.70;99.90;;;;;;5098381;28;20477;-67
2021/06/07 05:39:52;;;;;;;39.37;25.90;;;16.70;99.90;;;;;;5103802;28;20525;-68
2021/06/07 05:42:19;;;;;;;36.53;26.57;;;16.80;99.90;;;;;;5102458;28;20525;-66
2021/06/07 05:44:45;;;;;;;35.30;23.53;;;16.80;99.90;;;;;;5109933;28;20493;-66
2021/06/07 05:47:12;;;;;;;31.47;24.30;;;16.80;99.90;;;;;;5109607;28;20436;-67
2021/06/07 05:49:39;;;;;;;38.20;23.90;;;16.80;99.90;;;;;;5106623;28;20453;-66
2021/06/07 05:52:06;;;;;;;35.50;24.30;;;16.90;99.90;;;;;;5105793;28;20473;-69
2021/06/07 05:54:33;;;;;;;35.80;24.80;;;16.90;99.90;;;;;;5106869;28;20457;-66
2021/06/07 05:57:01;;;;;;;33.77;24.53;;;16.90;99.90;;;;;;5091742;28;21101;-67
2021/06/07 05:59:28;;;;;;;34.00;23.77;;;17.00;99.90;;;;;;5085398;28;21194;-67
2021/06/07 06:01:55;;;;;;;31.10;22.23;;;16.90;99.90;;;;;;5085715;28;20529;-68
2021/06/07 06:04:22;;;;;;;31.83;22.60;;;16.90;99.90;;;;;;5085903;28;20496;-67
2021/06/07 06:06:48;;;;;;;32.00;22.73;;;16.90;99.90;;;;;;5086022;28;20438;-67
2021/06/07 06:09:14;;;;;;;31.50;22.43;;;16.80;99.90;;;;;;5085690;28;20442;-67
2021/06/07 06:11:41;;;;;;;30.87;21.13;;;16.80;99.90;;;;;;5085522;28;20979;-68
2021/06/07 06:14:10;;;;;;;31.87;21.70;;;16.80;99.90;;;;;;5086196;28;20564;-68
2021/06/07 06:16:37;;;;;;;30.13;22.20;;;16.70;99.90;;;;;;5085823;28;21169;-66
2021/06/07 06:19:04;;;;;;;32.60;23.20;;;16.70;99.90;;;;;;5085617;28;20893;-67
2021/06/07 06:21:31;;;;;;;33.70;22.47;;;16.70;99.90;;;;;;5085720;28;21190;-67
2021/06/07 06:23:58;;;;;;;29.70;21.53;;;16.60;99.90;;;;;;5085685;28;20545;-68
2021/06/07 06:26:24;;;;;;;34.20;23.73;;;16.60;99.90;;;;;;5085622;28;21505;-67
2021/06/07 06:28:51;;;;;;;30.63;23.10;;;16.60;99.90;;;;;;5085687;28;20525;-69
2021/06/07 06:31:19;;;;;;;34.30;24.83;;;16.70;99.90;;;;;;5085123;28;20442;-68
2021/06/07 06:33:45;;;;;;;32.40;22.10;;;16.60;99.90;;;;;;5085395;28;20574;-68
2021/06/07 06:36:11;;;;;;;35.83;24.20;;;16.60;99.90;;;;;;5084883;28;20529;-67
2021/06/07 06:38:38;;;;;;;36.50;24.60;;;16.60;99.90;;;;;;5085094;28;20471;-67
2021/06/07 06:41:05;;;;;;;39.40;25.33;;;16.60;99.90;;;;;;5085505;28;20446;-70
2021/06/07 06:43:33;;;;;;;31.47;23.30;;;16.60;99.90;;;;;;5084869;28;20466;-68
2021/06/07 06:46:00;;;;;;;43.50;25.20;;;16.60;99.90;;;;;;5085457;28;20434;-67
2021/06/07 06:48:28;;;;;;;40.93;25.17;;;16.50;99.90;;;;;;5084986;28;21205;-66
2021/06/07 06:50:55;;;;;;;33.30;23.00;;;16.50;99.90;;;;;;5084889;28;20495;-68
2021/06/07 06:53:24;;;;;;;36.90;25.73;;;16.40;99.90;;;;;;5085118;28;20491;-67
2021/06/07 06:55:50;;;;;;;35.63;25.00;;;16.40;99.90;;;;;;5085074;28;20461;-67
2021/06/07 06:58:17;;;;;;;50.63;28.60;;;16.40;99.90;;;;;;5085343;28;20477;-66
2021/06/07 07:00:45;;;;;;;64.57;28.37;;;16.40;99.90;;;;;;5084835;28;20651;-67
2021/06/07 07:03:13;;;;;;;42.60;26.00;;;16.40;99.90;;;;;;5085197;28;20511;-67
2021/06/07 07:05:42;;;;;;;39.93;26.27;;;16.40;99.90;;;;;;5088700;28;21269;-69
2021/06/07 07:08:09;;;;;;;38.97;26.90;;;16.50;99.90;;;;;;5088892;28;20445;-68
2021/06/07 07:10:36;;;;;;;39.37;27.00;;;16.50;99.90;;;;;;5088431;28;20536;-68
2021/06/07 07:13:03;;;;;;;40.20;26.57;;;16.50;99.90;;;;;;5088193;28;20469;-67
2021/06/07 07:15:30;;;;;;;41.97;27.53;;;16.50;99.90;;;;;;5088539;28;20465;-68
2021/06/07 07:17:57;;;;;;;35.00;24.47;;;16.50;99.90;;;;;;5088889;28;20473;-69
2021/06/07 07:20:23;;;;;;;41.50;24.60;;;16.50;99.90;;;;;;5088015;28;20517;-66
2021/06/07 07:22:51;;;;;;;33.60;21.17;;;16.50;99.90;;;;;;5089061;28;21065;-63
2021/06/07 07:25:17;;;;;;;36.43;23.13;;;16.60;99.90;;;;;;5088384;28;20604;-68
2021/06/07 07:27:44;;;;;;;35.57;23.60;;;16.70;99.90;;;;;;5089143;28;20438;-67
2021/06/07 07:30:12;;;;;;;26.20;18.53;;;16.70;99.90;;;;;;5088141;28;20495;-68
2021/06/07 07:32:40;;;;;;;24.80;18.50;;;16.80;99.90;;;;;;5094491;28;20433;-68
2021/06/07 07:35:08;;;;;;;31.57;20.67;;;16.80;99.90;;;;;;5103457;28;20461;-70
2021/06/07 07:37:34;;;;;;;25.37;18.53;;;16.90;99.90;;;;;;5095870;28;21138;-68
2021/06/07 07:40:04;;;;;;;30.40;19.30;;;16.90;99.90;;;;;;5087791;28;21325;-69
2021/06/07 07:42:30;;;;;;;25.17;18.30;;;16.80;99.90;;;;;;5087784;28;20448;-67
2021/06/07 07:44:56;;;;;;;28.90;19.20;;;16.80;99.90;;;;;;5090553;28;20463;-67
2021/06/07 07:47:23;;;;;;;28.93;19.77;;;16.80;99.90;;;;;;5100332;28;20441;-68
2021/06/07 07:49:49;;;;;;;28.60;20.97;;;16.80;99.90;;;;;;5096637;28;20485;-67
2021/06/07 07:52:22;;;;;;;30.70;21.47;;;16.80;99.90;;;;;;5098555;28;20521;-68
2021/06/07 07:54:49;;;;;;;28.17;19.90;;;16.80;99.90;;;;;;5098370;28;20461;-65
2021/06/07 07:57:17;;;;;;;27.83;20.40;;;16.80;99.90;;;;;;5097040;28;20441;-67
2021/06/07 07:59:43;;;;;;;29.50;20.87;;;16.80;99.90;;;;;;5096993;28;21019;-67
2021/06/07 08:02:10;;;;;;;32.17;23.23;;;16.80;99.90;;;;;;5097895;28;20514;-69
2021/06/07 08:04:38;;;;;;;31.40;22.00;;;16.90;99.90;;;;;;5088270;28;20224;-67
2021/06/07 08:07:05;;;;;;;28.77;19.97;;;16.90;99.90;;;;;;5088490;28;20485;-68
2021/06/07 08:09:32;;;;;;;24.83;18.80;;;17.10;99.90;;;;;;5087332;28;20484;-65
2021/06/07 08:11:59;;;;;;;40.43;22.57;;;17.20;99.90;;;;;;5097424;28;21010;-65
2021/06/07 08:14:28;;;;;;;26.93;19.40;;;17.30;99.90;;;;;;5099687;28;21234;-65
2021/06/07 08:16:55;;;;;;;26.17;20.63;;;17.40;99.90;;;;;;5096900;28;20541;-64
2021/06/07 08:19:22;;;;;;;23.53;18.00;;;17.40;99.90;;;;;;5099584;28;20565;-64
2021/06/07 08:21:49;;;;;;;22.83;18.40;;;17.40;99.90;;;;;;5098669;28;20517;-65
2021/06/07 08:24:16;;;;;;;21.23;17.57;;;17.50;99.90;;;;;;5097947;28;20483;-64
2021/06/07 08:26:42;;;;;;;26.90;20.13;;;17.60;99.90;;;;;;5099564;28;20442;-66
2021/06/07 08:29:09;;;;;;;25.03;18.27;;;17.70;99.90;;;;;;5097987;28;20453;-64
2021/06/07 08:31:37;;;;;;;33.77;18.83;;;17.70;99.90;;;;;;5101602;28;20450;-65
2021/06/07 08:34:05;;;;;;;33.87;18.90;;;17.80;99.90;;;;;;5101530;28;20469;-66
2021/06/07 08:36:32;;;;;;;24.37;17.87;;;17.90;99.90;;;;;;5112143;28;20448;-63
2021/06/07 08:38:58;;;;;;;22.07;18.40;;;17.90;99.90;;;;;;5106504;28;20495;-65
2021/06/07 08:41:26;;;;;;;22.77;19.10;;;17.80;99.90;;;;;;5098432;28;20588;-67
2021/06/07 08:43:52;;;;;;;22.13;18.90;;;17.80;99.90;;;;;;5096562;28;20465;-66
2021/06/07 08:46:19;;;;;;;22.50;18.77;;;17.80;99.90;;;;;;5099090;28;20505;-67
2021/06/07 08:48:47;;;;;;;33.10;19.37;;;17.90;99.90;;;;;;5096996;28;20461;-67
2021/06/07 08:51:13;;;;;;;28.67;19.53;;;17.90;99.90;;;;;;5098835;28;20527;-67
2021/06/07 08:53:39;;;;;;;21.90;19.20;;;18.00;99.90;;;;;;5099209;28;20519;-70
2021/06/07 08:56:06;;;;;;;23.93;18.70;;;18.20;99.90;;;;;;5099286;28;20520;-66
2021/06/07 08:58:32;;;;;;;22.87;17.90;;;18.30;99.90;;;;;;5099850;28;20477;-66
2021/06/07 09:00:59;;;;;;;21.60;17.60;;;18.40;99.90;;;;;;5099594;28;20526;-65
2021/06/07 09:03:31;;;;;;;33.03;18.07;;;18.60;99.90;;;;;;5099250;28;20466;-67
2021/06/07 09:06:00;;;;;;;23.30;17.83;;;18.70;99.90;;;;;;5099278;28;20529;-67
2021/06/07 09:08:30;;;;;;;23.07;18.63;;;18.70;99.90;;;;;;5098764;28;20448;-68
2021/06/07 09:10:57;;;;;;;21.43;17.47;;;18.70;99.90;;;;;;5100509;28;20487;-66
2021/06/07 09:13:29;;;;;;;22.13;18.70;;;18.80;99.90;;;;;;5098570;28;20475;-68
2021/06/07 09:15:57;;;;;;;20.97;17.40;;;18.80;99.90;;;;;;5098453;28;20449;-69
2021/06/07 09:18:30;;;;;;;20.00;17.83;;;18.70;99.90;;;;;;5100266;28;20487;-66
2021/06/07 09:21:03;;;;;;;20.67;17.90;;;18.60;99.90;;;;;;5098623;28;20446;-65
2021/06/07 09:23:41;;;;;;;23.77;18.77;;;18.60;99.90;;;;;;5098902;28;20549;-66
2021/06/07 09:26:23;;;;;;;22.53;19.53;;;18.50;99.90;;;;;;5100604;28;20447;-65
2021/06/07 09:28:49;;;;;;;20.37;17.70;;;18.60;99.90;;;;;;5107615;28;20480;-65
2021/06/07 09:31:17;;;;;;;22.57;18.97;;;18.50;99.90;;;;;;5107540;28;20433;-66
2021/06/07 09:33:47;;;;;;;20.50;18.17;;;18.50;99.90;;;;;;5101984;28;20472;-66
2021/06/07 09:36:20;;;;;;;23.17;19.10;;;18.40;99.90;;;;;;5108122;28;20444;-67
2021/06/07 09:39:12;;;;;;;20.53;18.30;;;18.60;99.90;;;;;;5100419;28;20477;-67
2021/06/07 09:41:52;;;;;;;21.97;19.73;;;18.70;99.90;;;;;;5099217;28;20437;-67
2021/06/07 09:44:31;;;;;;;20.47;18.27;;;18.70;99.90;;;;;;5098585;28;20486;-67
2021/06/07 09:47:15;;;;;;;19.43;17.57;;;18.80;99.90;;;;;;5098342;28;20441;-67
2021/06/07 09:49:43;;;;;;;22.40;18.60;;;18.70;99.90;;;;;;5097139;28;20448;-67
2021/06/07 09:52:14;;;;;;;21.70;18.33;;;18.70;99.90;;;;;;5098131;28;20520;-67
2021/06/07 09:54:40;;;;;;;22.80;20.50;;;18.70;99.90;;;;;;5097820;28;20492;-67
2021/06/07 09:57:07;;;;;;;22.00;19.13;;;18.70;99.90;;;;;;5098513;28;20434;-67
2021/06/07 09:59:37;;;;;;;19.30;17.27;;;18.70;99.90;;;;;;5098100;28;20473;-67
2021/06/07 10:02:14;;;;;;;21.80;18.67;;;18.70;99.90;;;;;;5097182;28;20490;-67
2021/06/07 10:04:48;;;;;;;24.37;20.53;;;18.80;99.90;;;;;;5098375;28;20492;-68
2021/06/07 10:07:16;;;;;;;21.70;19.00;;;18.70;99.90;;;;;;5098219;28;20441;-67
2021/06/07 10:10:07;;;;;;;23.20;20.03;;;18.60;99.90;;;;;;5097538;28;20434;-67
2021/06/07 10:12:34;;;;;;;23.20;19.90;;;18.70;99.90;;;;;;5095765;28;20446;-67
2021/06/07 10:15:01;;;;;;;22.00;19.17;;;18.70;99.90;;;;;;5099791;28;20465;-67
2021/06/07 10:17:27;;;;;;;23.63;18.93;;;18.90;99.90;;;;;;5097104;28;20448;-66
2021/06/07 10:20:46;;;;;;;22.53;20.13;;;18.90;99.90;;;;;;5096690;28;20566;-67
2021/06/07 10:22:47;;;;;;;21.70;19.00;;;18.90;99.90;;;;;;5097869;28;20426;-67
2021/06/07 10:25:14;;;;;;;22.13;19.83;;;18.90;99.90;;;;;;5098548;28;20489;-62
2021/06/07 10:27:41;;;;;;;22.47;20.10;;;19.00;99.90;;;;;;5098602;28;20475;-66
2021/06/07 10:30:18;;;;;;;22.40;20.00;;;19.10;99.90;;;;;;5096534;28;20453;-65
2021/06/07 10:32:45;;;;;;;24.60;20.30;;;19.30;99.90;;;;;;5098148;28;20438;-67
2021/06/07 10:35:13;;;;;;;22.67;20.23;;;19.40;99.90;;;;;;5101899;28;20933;-67
2021/06/07 10:38:07;;;;;;;20.63;18.50;;;19.50;99.90;;;;;;5107401;28;21264;-66
2021/06/07 10:40:33;;;;;;;27.00;18.90;;;19.50;99.90;;;;;;5110892;28;20503;-68
2021/06/07 10:43:03;;;;;;;21.20;19.00;;;19.70;99.90;;;;;;5111069;28;20558;-67
2021/06/07 10:45:31;;;;;;;21.50;19.03;;;19.90;99.90;;;;;;5111136;28;20480;-67
2021/06/07 10:47:59;;;;;;;22.60;20.23;;;20.10;99.90;;;;;;5111202;28;20475;-67
2021/06/07 10:50:28;;;;;;;23.10;19.70;;;20.20;99.90;;;;;;5110322;28;20469;-67
2021/06/07 10:52:57;;;;;;;20.80;17.83;;;20.20;99.90;;;;;;5110420;28;21173;-67
2021/06/07 10:55:27;;;;;;;20.13;17.70;;;20.20;99.90;;;;;;5109144;28;20978;-65
2021/06/07 10:57:55;;;;;;;21.33;18.73;;;20.20;99.90;;;;;;5108962;28;21030;-66
2021/06/07 11:00:31;;;;;;;26.40;19.50;;;20.30;99.90;;;;;;5107683;28;20445;-67
2021/06/07 11:02:59;;;;;;;20.73;18.53;;;20.40;99.90;;;;;;5103049;28;20901;-66
2021/06/07 11:05:27;;;;;;;20.77;18.60;;;20.40;99.90;;;;;;5103721;28;20433;-66
2021/06/07 11:08:09;;;;;;;24.53;18.80;;;20.40;99.90;;;;;;5108323;28;20437;-67
2021/06/07 11:10:40;;;;;;;21.50;18.63;;;20.30;99.90;;;;;;5108088;28;20851;-66
2021/06/07 11:13:09;;;;;;;22.63;19.77;;;20.30;99.90;;;;;;5098636;28;20446;-66
2021/06/07 11:15:37;;;;;;;21.90;18.80;;;20.30;99.90;;;;;;5102273;28;20537;-67
2021/06/07 11:18:28;;;;;;;21.87;19.53;;;20.30;99.90;;;;;;5102619;28;20480;-66
2021/06/07 11:21:01;;;;;;;22.43;19.73;;;20.10;99.90;;;;;;5103057;28;20536;-73
2021/06/07 11:23:33;;;;;;;21.93;19.70;;;19.80;99.90;;;;;;5105151;28;20551;-68
2021/06/07 11:26:02;;;;;;;22.00;19.80;;;19.60;99.90;;;;;;5104522;28;20480;-66
2021/06/07 11:28:39;;;;;;;20.90;18.60;;;19.50;99.90;;;;;;5104750;28;20441;-65
2021/06/07 11:31:27;;;;;;;21.17;18.87;;;19.50;99.90;;;;;;5103103;28;21044;-67
2021/06/07 11:33:54;;;;;;;22.40;20.10;;;19.40;99.90;;;;;;5104790;28;20473;-66
2021/06/07 11:36:38;;;;;;;29.23;21.97;;;19.50;99.90;;;;;;5101734;28;20442;-66
2021/06/07 11:39:06;;;;;;;22.93;20.43;;;19.50;99.90;;;;;;5109794;28;20481;-66
2021/06/07 11:41:51;;;;;;;22.63;20.00;;;19.60;99.90;;;;;;5109120;28;20449;-67
2021/06/07 11:44:18;;;;;;;22.67;20.27;;;19.90;99.90;;;;;;5099945;28;20465;-66
2021/06/07 11:46:58;;;;;;;24.70;21.93;;;20.10;99.90;;;;;;5111455;28;20453;-67
2021/06/07 11:49:25;;;;;;;23.57;20.47;;;20.20;99.90;;;;;;5107036;28;21207;-66
2021/06/07 11:52:10;;;;;;;23.23;20.33;;;20.10;99.90;;;;;;5104377;28;20522;-66
2021/06/07 11:54:51;;;;;;;23.80;21.47;;;20.10;99.90;;;;;;5103151;28;20504;-66
2021/06/07 11:57:24;;;;;;;26.67;21.57;;;20.20;99.90;;;;;;5102288;28;20517;-67
2021/06/07 12:00:00;;;;;;;26.60;22.43;;;19.90;99.90;;;;;;5102429;28;20946;-67
2021/06/07 12:02:28;;;;;;;26.13;23.33;;;19.70;99.90;;;;;;5101038;28;20445;-65
2021/06/07 12:04:55;;;;;;;24.40;21.70;;;19.60;99.90;;;;;;5102332;28;20548;-67
2021/06/07 12:07:22;;;;;;;27.43;24.50;;;19.40;99.90;;;;;;5103975;28;20513;-67
2021/06/07 12:09:52;;;;;;;28.50;25.40;;;19.50;99.90;;;;;;5104226;28;20438;-66
2021/06/07 12:12:21;;;;;;;26.77;23.90;;;19.70;99.90;;;;;;5103963;28;20438;-67
2021/06/07 12:14:50;;;;;;;29.77;24.40;;;19.80;99.90;;;;;;5106446;28;20461;-67
2021/06/07 12:17:19;;;;;;;25.23;22.53;;;19.90;99.90;;;;;;5102562;28;20794;-66
2021/06/07 12:19:53;;;;;;;26.50;23.30;;;19.90;99.90;;;;;;5102705;28;20485;-66
2021/06/07 12:22:34;;;;;;;25.60;22.93;;;19.90;99.90;;;;;;5101461;28;20460;-66
2021/06/07 12:25:14;;;;;;;25.90;23.03;;;19.90;99.90;;;;;;5103162;28;20479;-67
2021/06/07 12:30:29;;;;;;;25.53;22.87;;;19.60;99.90;;;;;;5097918;28;20432;-65
2021/06/07 12:32:56;;;;;;;27.10;24.07;;;19.40;99.90;;;;;;5100745;28;20482;-66
2021/06/07 12:35:23;;;;;;;29.23;24.50;;;19.30;99.90;;;;;;5103293;28;20477;-66
2021/06/07 12:37:51;;;;;;;25.63;23.03;;;19.20;99.90;;;;;;5097284;28;20452;-65